sensor_id;sensor_type;location;lat;lon;timestamp;P1;durP1;ratioP1;P2;durP2;ratioP2
29984;SDS011;17387;42.690;23.328;2024-02-26T00:01:45;57.65;;;32.50;;
29984;SDS011;17387;42.690;23.328;2024-02-26T00:04:11;53.20;;;33.38;;
29984;SDS011;17387;42.690;23.328;2024-02-26T00:06:37;53.08;;;32.47;;
29984;SDS011;17387;42.690;23.328;2024-02-26T00:09:03;50.58;;;32.55;;
29984;SDS011;17387;42.690;23.328;2024-02-26T00:11:31;55.60;;;32.75;;
29984;SDS011;17387;42.690;23.328;2024-02-26T00:13:56;57.63;;;31.52;;
29984;SDS011;17387;42.690;23.328;2024-02-26T00:16:21;52.45;;;30.35;;
29984;SDS011;17387;42.690;23.328;2024-02-26T00:18:46;52.75;;;31.00;;
29984;SDS011;17387;42.690;23.328;2024-02-26T00:21:12;49.35;;;30.52;;
29984;SDS011;17387;42.690;23.328;2024-02-26T00:23:37;51.50;;;31.25;;
29984;SDS011;17387;42.690;23.328;2024-02-26T00:26:02;51.08;;;30.25;;
29984;SDS011;17387;42.690;23.328;2024-02-26T00:28:28;54.47;;;31.23;;
29984;SDS011;17387;42.690;23.328;2024-02-26T00:30:54;58.88;;;31.38;;
29984;SDS011;17387;42.690;23.328;2024-02-26T00:33:21;58.03;;;32.28;;
29984;SDS011;17387;42.690;23.328;2024-02-26T00:35:46;52.67;;;32.45;;
29984;SDS011;17387;42.690;23.328;2024-02-26T00:38:11;55.15;;;31.55;;
29984;SDS011;17387;42.690;23.328;2024-02-26T00:40:37;54.70;;;32.15;;
29984;SDS011;17387;42.690;23.328;2024-02-26T00:43:02;58.15;;;34.55;;
29984;SDS011;17387;42.690;23.328;2024-02-26T00:45:27;54.33;;;33.83;;
29984;SDS011;17387;42.690;23.328;2024-02-26T00:47:53;64.40;;;36.20;;
29984;SDS011;17387;42.690;23.328;2024-02-26T00:50:18;67.63;;;35.10;;
29984;SDS011;17387;42.690;23.328;2024-02-26T00:52:43;59.38;;;36.35;;
29984;SDS011;17387;42.690;23.328;2024-02-26T00:55:08;64.68;;;37.72;;
29984;SDS011;17387;42.690;23.328;2024-02-26T00:57:34;63.92;;;37.15;;
29984;SDS011;17387;42.690;23.328;2024-02-26T00:59:59;64.78;;;35.95;;
29984;SDS011;17387;42.690;23.328;2024-02-26T01:02:25;64.95;;;36.83;;
29984;SDS011;17387;42.690;23.328;2024-02-26T01:04:51;58.65;;;35.92;;
29984;SDS011;17387;42.690;23.328;2024-02-26T01:07:16;62.87;;;35.37;;
29984;SDS011;17387;42.690;23.328;2024-02-26T01:09:41;58.10;;;33.58;;
29984;SDS011;17387;42.690;23.328;2024-02-26T01:12:07;54.25;;;32.97;;
29984;SDS011;17387;42.690;23.328;2024-02-26T01:14:32;54.50;;;34.77;;
29984;SDS011;17387;42.690;23.328;2024-02-26T01:16:57;58.23;;;34.27;;
29984;SDS011;17387;42.690;23.328;2024-02-26T01:19:22;60.13;;;35.50;;
29984;SDS011;17387;42.690;23.328;2024-02-26T01:21:48;55.28;;;33.38;;
29984;SDS011;17387;42.690;23.328;2024-02-26T01:24:13;61.22;;;33.83;;
29984;SDS011;17387;42.690;23.328;2024-02-26T01:26:38;55.97;;;34.10;;
29984;SDS011;17387;42.690;23.328;2024-02-26T01:29:04;56.13;;;34.13;;
29984;SDS011;17387;42.690;23.328;2024-02-26T01:31:29;55.08;;;33.60;;
29984;SDS011;17387;42.690;23.328;2024-02-26T01:33:54;54.65;;;32.47;;
29984;SDS011;17387;42.690;23.328;2024-02-26T01:36:19;59.63;;;33.42;;
29984;SDS011;17387;42.690;23.328;2024-02-26T01:38:45;57.55;;;32.60;;
29984;SDS011;17387;42.690;23.328;2024-02-26T01:41:11;54.27;;;32.77;;
29984;SDS011;17387;42.690;23.328;2024-02-26T01:43:36;56.83;;;32.87;;
29984;SDS011;17387;42.690;23.328;2024-02-26T01:46:01;57.23;;;33.13;;
29984;SDS011;17387;42.690;23.328;2024-02-26T01:48:27;65.55;;;33.92;;
29984;SDS011;17387;42.690;23.328;2024-02-26T01:50:52;51.75;;;32.53;;
29984;SDS011;17387;42.690;23.328;2024-02-26T01:53:18;54.75;;;32.50;;
29984;SDS011;17387;42.690;23.328;2024-02-26T01:55:43;52.10;;;32.60;;
29984;SDS011;17387;42.690;23.328;2024-02-26T01:58:09;54.63;;;31.45;;
29984;SDS011;17387;42.690;23.328;2024-02-26T02:00:34;55.15;;;33.45;;
29984;SDS011;17387;42.690;23.328;2024-02-26T02:03:00;56.63;;;34.22;;
29984;SDS011;17387;42.690;23.328;2024-02-26T02:05:26;54.97;;;33.83;;
29984;SDS011;17387;42.690;23.328;2024-02-26T02:07:51;58.88;;;35.20;;
29984;SDS011;17387;42.690;23.328;2024-02-26T02:10:18;57.15;;;33.50;;
29984;SDS011;17387;42.690;23.328;2024-02-26T02:12:47;57.80;;;33.95;;
29984;SDS011;17387;42.690;23.328;2024-02-26T02:15:13;51.50;;;33.90;;
29984;SDS011;17387;42.690;23.328;2024-02-26T02:17:38;57.17;;;33.95;;
29984;SDS011;17387;42.690;23.328;2024-02-26T02:20:07;52.53;;;32.53;;
29984;SDS011;17387;42.690;23.328;2024-02-26T02:22:32;56.90;;;33.58;;
29984;SDS011;17387;42.690;23.328;2024-02-26T02:24:58;58.55;;;34.85;;
29984;SDS011;17387;42.690;23.328;2024-02-26T02:27:24;58.58;;;34.50;;
29984;SDS011;17387;42.690;23.328;2024-02-26T02:29:49;56.60;;;33.00;;
29984;SDS011;17387;42.690;23.328;2024-02-26T02:32:14;55.80;;;32.05;;
29984;SDS011;17387;42.690;23.328;2024-02-26T02:34:40;47.53;;;28.85;;
29984;SDS011;17387;42.690;23.328;2024-02-26T02:37:06;41.35;;;26.20;;
29984;SDS011;17387;42.690;23.328;2024-02-26T02:39:31;43.45;;;26.35;;
29984;SDS011;17387;42.690;23.328;2024-02-26T02:41:56;44.03;;;26.03;;
29984;SDS011;17387;42.690;23.328;2024-02-26T02:44:22;41.78;;;25.88;;
29984;SDS011;17387;42.690;23.328;2024-02-26T02:46:47;41.90;;;26.43;;
29984;SDS011;17387;42.690;23.328;2024-02-26T02:49:12;47.25;;;26.38;;
29984;SDS011;17387;42.690;23.328;2024-02-26T02:51:37;46.03;;;25.65;;
29984;SDS011;17387;42.690;23.328;2024-02-26T02:54:03;44.30;;;26.23;;
29984;SDS011;17387;42.690;23.328;2024-02-26T02:56:28;40.85;;;25.65;;
29984;SDS011;17387;42.690;23.328;2024-02-26T02:58:54;45.78;;;25.23;;
29984;SDS011;17387;42.690;23.328;2024-02-26T03:01:19;42.53;;;24.90;;
29984;SDS011;17387;42.690;23.328;2024-02-26T03:03:44;43.70;;;26.50;;
29984;SDS011;17387;42.690;23.328;2024-02-26T03:06:09;43.58;;;26.98;;
29984;SDS011;17387;42.690;23.328;2024-02-26T03:08:34;44.03;;;28.60;;
29984;SDS011;17387;42.690;23.328;2024-02-26T03:11:03;48.90;;;29.30;;
29984;SDS011;17387;42.690;23.328;2024-02-26T03:13:28;42.17;;;28.55;;
29984;SDS011;17387;42.690;23.328;2024-02-26T03:15:53;46.40;;;29.55;;
29984;SDS011;17387;42.690;23.328;2024-02-26T03:18:19;48.95;;;31.00;;
29984;SDS011;17387;42.690;23.328;2024-02-26T03:20:44;47.90;;;30.58;;
29984;SDS011;17387;42.690;23.328;2024-02-26T03:23:09;50.80;;;31.40;;
29984;SDS011;17387;42.690;23.328;2024-02-26T03:25:37;51.10;;;31.52;;
29984;SDS011;17387;42.690;23.328;2024-02-26T03:28:03;55.22;;;32.28;;
29984;SDS011;17387;42.690;23.328;2024-02-26T03:30:28;52.53;;;32.40;;
29984;SDS011;17387;42.690;23.328;2024-02-26T03:32:53;57.45;;;33.15;;
29984;SDS011;17387;42.690;23.328;2024-02-26T03:35:19;53.05;;;32.08;;
29984;SDS011;17387;42.690;23.328;2024-02-26T03:37:45;50.73;;;32.30;;
29984;SDS011;17387;42.690;23.328;2024-02-26T03:40:11;54.13;;;32.70;;
29984;SDS011;17387;42.690;23.328;2024-02-26T03:42:38;55.55;;;33.15;;
29984;SDS011;17387;42.690;23.328;2024-02-26T03:45:03;60.65;;;33.53;;
29984;SDS011;17387;42.690;23.328;2024-02-26T03:47:28;54.88;;;33.63;;
29984;SDS011;17387;42.690;23.328;2024-02-26T03:49:53;55.60;;;32.78;;
29984;SDS011;17387;42.690;23.328;2024-02-26T03:52:19;54.33;;;34.57;;
29984;SDS011;17387;42.690;23.328;2024-02-26T03:54:44;53.97;;;33.40;;
29984;SDS011;17387;42.690;23.328;2024-02-26T03:57:09;57.63;;;35.17;;
29984;SDS011;17387;42.690;23.328;2024-02-26T03:59:34;55.60;;;32.57;;
29984;SDS011;17387;42.690;23.328;2024-02-26T04:01:59;52.88;;;32.70;;
29984;SDS011;17387;42.690;23.328;2024-02-26T04:04:26;51.40;;;32.55;;
29984;SDS011;17387;42.690;23.328;2024-02-26T04:06:52;53.77;;;32.73;;
29984;SDS011;17387;42.690;23.328;2024-02-26T04:09:17;56.17;;;33.53;;
29984;SDS011;17387;42.690;23.328;2024-02-26T04:11:42;52.13;;;33.28;;
29984;SDS011;17387;42.690;23.328;2024-02-26T04:14:10;51.67;;;32.28;;
29984;SDS011;17387;42.690;23.328;2024-02-26T04:16:37;56.20;;;32.70;;
29984;SDS011;17387;42.690;23.328;2024-02-26T04:19:02;55.88;;;32.47;;
29984;SDS011;17387;42.690;23.328;2024-02-26T04:21:27;56.00;;;32.38;;
29984;SDS011;17387;42.690;23.328;2024-02-26T04:23:53;52.03;;;31.73;;
29984;SDS011;17387;42.690;23.328;2024-02-26T04:26:20;55.65;;;33.28;;
29984;SDS011;17387;42.690;23.328;2024-02-26T04:28:46;57.25;;;31.90;;
29984;SDS011;17387;42.690;23.328;2024-02-26T04:31:11;50.17;;;31.00;;
29984;SDS011;17387;42.690;23.328;2024-02-26T04:33:36;53.73;;;33.83;;
29984;SDS011;17387;42.690;23.328;2024-02-26T04:36:02;52.90;;;32.70;;
29984;SDS011;17387;42.690;23.328;2024-02-26T04:38:28;54.55;;;33.70;;
29984;SDS011;17387;42.690;23.328;2024-02-26T04:40:53;55.33;;;31.67;;
29984;SDS011;17387;42.690;23.328;2024-02-26T04:43:19;57.20;;;33.42;;
29984;SDS011;17387;42.690;23.328;2024-02-26T04:45:44;56.47;;;33.35;;
29984;SDS011;17387;42.690;23.328;2024-02-26T04:48:09;54.30;;;34.03;;
29984;SDS011;17387;42.690;23.328;2024-02-26T04:50:35;56.63;;;34.23;;
29984;SDS011;17387;42.690;23.328;2024-02-26T04:53:00;54.03;;;33.05;;
29984;SDS011;17387;42.690;23.328;2024-02-26T04:55:25;55.83;;;33.20;;
29984;SDS011;17387;42.690;23.328;2024-02-26T04:57:50;55.17;;;33.17;;
29984;SDS011;17387;42.690;23.328;2024-02-26T05:00:15;61.10;;;33.95;;
29984;SDS011;17387;42.690;23.328;2024-02-26T05:02:41;58.15;;;33.90;;
29984;SDS011;17387;42.690;23.328;2024-02-26T05:05:06;60.35;;;34.15;;
29984;SDS011;17387;42.690;23.328;2024-02-26T05:07:32;54.05;;;33.17;;
29984;SDS011;17387;42.690;23.328;2024-02-26T05:09:57;52.83;;;32.28;;
29984;SDS011;17387;42.690;23.328;2024-02-26T05:12:22;60.30;;;34.28;;
29984;SDS011;17387;42.690;23.328;2024-02-26T05:14:48;56.75;;;33.95;;
29984;SDS011;17387;42.690;23.328;2024-02-26T05:17:13;52.92;;;32.53;;
29984;SDS011;17387;42.690;23.328;2024-02-26T05:19:38;53.10;;;32.55;;
29984;SDS011;17387;42.690;23.328;2024-02-26T05:22:03;53.63;;;32.85;;
29984;SDS011;17387;42.690;23.328;2024-02-26T05:24:29;55.28;;;31.20;;
29984;SDS011;17387;42.690;23.328;2024-02-26T05:26:54;57.90;;;34.27;;
29984;SDS011;17387;42.690;23.328;2024-02-26T05:29:20;55.42;;;33.55;;
29984;SDS011;17387;42.690;23.328;2024-02-26T05:31:45;56.25;;;34.53;;
29984;SDS011;17387;42.690;23.328;2024-02-26T05:34:11;56.83;;;34.65;;
29984;SDS011;17387;42.690;23.328;2024-02-26T05:36:36;56.88;;;33.60;;
29984;SDS011;17387;42.690;23.328;2024-02-26T05:39:01;56.83;;;34.38;;
29984;SDS011;17387;42.690;23.328;2024-02-26T05:41:27;55.28;;;34.20;;
29984;SDS011;17387;42.690;23.328;2024-02-26T05:43:52;58.25;;;34.45;;
29984;SDS011;17387;42.690;23.328;2024-02-26T05:46:18;55.28;;;32.15;;
29984;SDS011;17387;42.690;23.328;2024-02-26T05:48:44;54.97;;;32.78;;
29984;SDS011;17387;42.690;23.328;2024-02-26T05:51:09;57.22;;;33.50;;
29984;SDS011;17387;42.690;23.328;2024-02-26T05:53:34;58.55;;;37.35;;
29984;SDS011;17387;42.690;23.328;2024-02-26T05:55:59;55.78;;;32.33;;
29984;SDS011;17387;42.690;23.328;2024-02-26T05:58:25;54.80;;;31.43;;
29984;SDS011;17387;42.690;23.328;2024-02-26T06:00:50;50.05;;;29.48;;
29984;SDS011;17387;42.690;23.328;2024-02-26T06:03:15;49.80;;;30.10;;
29984;SDS011;17387;42.690;23.328;2024-02-26T06:05:41;52.88;;;31.88;;
29984;SDS011;17387;42.690;23.328;2024-02-26T06:08:07;53.10;;;32.58;;
29984;SDS011;17387;42.690;23.328;2024-02-26T06:10:32;55.43;;;32.73;;
29984;SDS011;17387;42.690;23.328;2024-02-26T06:12:57;53.15;;;32.33;;
29984;SDS011;17387;42.690;23.328;2024-02-26T06:15:23;60.35;;;33.78;;
29984;SDS011;17387;42.690;23.328;2024-02-26T06:17:48;58.05;;;33.72;;
29984;SDS011;17387;42.690;23.328;2024-02-26T06:20:13;49.45;;;31.45;;
29984;SDS011;17387;42.690;23.328;2024-02-26T06:22:42;58.38;;;33.35;;
29984;SDS011;17387;42.690;23.328;2024-02-26T06:25:07;55.88;;;32.88;;
29984;SDS011;17387;42.690;23.328;2024-02-26T06:27:33;50.22;;;30.90;;
29984;SDS011;17387;42.690;23.328;2024-02-26T06:29:59;47.03;;;29.80;;
29984;SDS011;17387;42.690;23.328;2024-02-26T06:32:24;52.45;;;30.10;;
29984;SDS011;17387;42.690;23.328;2024-02-26T06:34:51;49.72;;;29.63;;
29984;SDS011;17387;42.690;23.328;2024-02-26T06:37:17;49.03;;;29.20;;
29984;SDS011;17387;42.690;23.328;2024-02-26T06:39:42;51.97;;;29.38;;
29984;SDS011;17387;42.690;23.328;2024-02-26T06:42:07;47.78;;;28.75;;
29984;SDS011;17387;42.690;23.328;2024-02-26T06:44:32;51.22;;;29.58;;
29984;SDS011;17387;42.690;23.328;2024-02-26T06:46:58;50.17;;;30.00;;
29984;SDS011;17387;42.690;23.328;2024-02-26T06:49:27;47.95;;;28.02;;
29984;SDS011;17387;42.690;23.328;2024-02-26T06:51:52;44.70;;;27.10;;
29984;SDS011;17387;42.690;23.328;2024-02-26T06:54:18;48.15;;;27.60;;
29984;SDS011;17387;42.690;23.328;2024-02-26T06:56:43;48.00;;;29.75;;
29984;SDS011;17387;42.690;23.328;2024-02-26T06:59:08;49.53;;;28.27;;
29984;SDS011;17387;42.690;23.328;2024-02-26T07:01:33;49.55;;;29.75;;
29984;SDS011;17387;42.690;23.328;2024-02-26T07:03:59;50.42;;;29.52;;
29984;SDS011;17387;42.690;23.328;2024-02-26T07:06:24;47.42;;;29.27;;
29984;SDS011;17387;42.690;23.328;2024-02-26T07:08:50;50.47;;;29.70;;
29984;SDS011;17387;42.690;23.328;2024-02-26T07:11:15;55.10;;;30.33;;
29984;SDS011;17387;42.690;23.328;2024-02-26T07:13:40;52.17;;;31.10;;
29984;SDS011;17387;42.690;23.328;2024-02-26T07:16:05;51.77;;;29.50;;
29984;SDS011;17387;42.690;23.328;2024-02-26T07:18:31;48.22;;;28.33;;
29984;SDS011;17387;42.690;23.328;2024-02-26T07:20:56;48.08;;;28.08;;
29984;SDS011;17387;42.690;23.328;2024-02-26T07:23:21;45.70;;;28.15;;
29984;SDS011;17387;42.690;23.328;2024-02-26T07:25:46;45.28;;;28.65;;
29984;SDS011;17387;42.690;23.328;2024-02-26T07:28:14;51.65;;;30.15;;
29984;SDS011;17387;42.690;23.328;2024-02-26T07:30:39;45.45;;;27.85;;
29984;SDS011;17387;42.690;23.328;2024-02-26T07:33:04;48.05;;;30.23;;
29984;SDS011;17387;42.690;23.328;2024-02-26T07:35:29;49.53;;;28.08;;
29984;SDS011;17387;42.690;23.328;2024-02-26T07:37:55;54.95;;;30.52;;
29984;SDS011;17387;42.690;23.328;2024-02-26T07:40:20;56.15;;;32.00;;
29984;SDS011;17387;42.690;23.328;2024-02-26T07:42:45;58.25;;;32.83;;
29984;SDS011;17387;42.690;23.328;2024-02-26T07:45:10;57.83;;;34.20;;
29984;SDS011;17387;42.690;23.328;2024-02-26T07:47:36;64.57;;;34.95;;
29984;SDS011;17387;42.690;23.328;2024-02-26T07:50:03;59.25;;;35.13;;
29984;SDS011;17387;42.690;23.328;2024-02-26T07:52:28;59.88;;;34.83;;
29984;SDS011;17387;42.690;23.328;2024-02-26T07:54:53;65.97;;;36.92;;
29984;SDS011;17387;42.690;23.328;2024-02-26T07:57:18;63.87;;;34.97;;
29984;SDS011;17387;42.690;23.328;2024-02-26T07:59:46;71.97;;;36.33;;
29984;SDS011;17387;42.690;23.328;2024-02-26T08:02:14;59.10;;;35.47;;
29984;SDS011;17387;42.690;23.328;2024-02-26T08:04:39;59.25;;;33.10;;
29984;SDS011;17387;42.690;23.328;2024-02-26T08:07:05;56.63;;;33.83;;
29984;SDS011;17387;42.690;23.328;2024-02-26T08:09:30;54.63;;;31.63;;
29984;SDS011;17387;42.690;23.328;2024-02-26T08:11:55;56.33;;;32.80;;
29984;SDS011;17387;42.690;23.328;2024-02-26T08:14:20;56.00;;;32.77;;
29984;SDS011;17387;42.690;23.328;2024-02-26T08:16:46;83.93;;;42.80;;
29984;SDS011;17387;42.690;23.328;2024-02-26T08:19:11;55.08;;;30.92;;
29984;SDS011;17387;42.690;23.328;2024-02-26T08:21:39;72.97;;;42.80;;
29984;SDS011;17387;42.690;23.328;2024-02-26T08:24:04;60.13;;;32.10;;
29984;SDS011;17387;42.690;23.328;2024-02-26T08:26:29;55.50;;;31.65;;
29984;SDS011;17387;42.690;23.328;2024-02-26T08:28:55;53.27;;;30.37;;
29984;SDS011;17387;42.690;23.328;2024-02-26T08:31:20;53.72;;;29.60;;
29984;SDS011;17387;42.690;23.328;2024-02-26T08:33:46;50.35;;;28.60;;
29984;SDS011;17387;42.690;23.328;2024-02-26T08:36:11;50.23;;;29.30;;
29984;SDS011;17387;42.690;23.328;2024-02-26T08:38:36;40.67;;;25.65;;
29984;SDS011;17387;42.690;23.328;2024-02-26T08:41:02;42.15;;;24.63;;
29984;SDS011;17387;42.690;23.328;2024-02-26T08:43:30;40.33;;;22.88;;
29984;SDS011;17387;42.690;23.328;2024-02-26T08:45:56;35.65;;;23.20;;
29984;SDS011;17387;42.690;23.328;2024-02-26T08:48:21;30.35;;;19.23;;
29984;SDS011;17387;42.690;23.328;2024-02-26T08:50:46;49.75;;;24.73;;
29984;SDS011;17387;42.690;23.328;2024-02-26T08:53:12;39.03;;;24.37;;
29984;SDS011;17387;42.690;23.328;2024-02-26T08:55:37;57.20;;;27.58;;
29984;SDS011;17387;42.690;23.328;2024-02-26T09:00:46;52.45;;;31.20;;
29984;SDS011;17387;42.690;23.328;2024-02-26T09:03:11;42.25;;;25.70;;
29984;SDS011;17387;42.690;23.328;2024-02-26T09:05:37;41.72;;;23.67;;
29984;SDS011;17387;42.690;23.328;2024-02-26T09:08:02;41.80;;;25.35;;
29984;SDS011;17387;42.690;23.328;2024-02-26T09:10:28;40.70;;;23.50;;
29984;SDS011;17387;42.690;23.328;2024-02-26T09:12:53;34.63;;;18.73;;
29984;SDS011;17387;42.690;23.328;2024-02-26T09:15:20;28.25;;;15.30;;
29984;SDS011;17387;42.690;23.328;2024-02-26T09:17:46;26.83;;;16.42;;
29984;SDS011;17387;42.690;23.328;2024-02-26T09:20:15;30.13;;;14.70;;
29984;SDS011;17387;42.690;23.328;2024-02-26T09:22:40;25.42;;;14.93;;
29984;SDS011;17387;42.690;23.328;2024-02-26T09:25:07;21.40;;;13.02;;
29984;SDS011;17387;42.690;23.328;2024-02-26T09:27:32;22.17;;;13.00;;
29984;SDS011;17387;42.690;23.328;2024-02-26T09:29:58;47.67;;;20.83;;
29984;SDS011;17387;42.690;23.328;2024-02-26T09:32:23;30.17;;;16.23;;
29984;SDS011;17387;42.690;23.328;2024-02-26T09:34:49;18.60;;;11.23;;
29984;SDS011;17387;42.690;23.328;2024-02-26T09:37:15;23.42;;;13.38;;
29984;SDS011;17387;42.690;23.328;2024-02-26T09:39:40;24.57;;;15.73;;
29984;SDS011;17387;42.690;23.328;2024-02-26T09:42:05;32.47;;;16.87;;
29984;SDS011;17387;42.690;23.328;2024-02-26T09:44:35;13.60;;;9.68;;
29984;SDS011;17387;42.690;23.328;2024-02-26T09:47:03;38.20;;;20.45;;
29984;SDS011;17387;42.690;23.328;2024-02-26T09:49:29;25.00;;;9.25;;
29984;SDS011;17387;42.690;23.328;2024-02-26T09:51:54;34.83;;;17.63;;
29984;SDS011;17387;42.690;23.328;2024-02-26T09:54:21;18.95;;;10.00;;
29984;SDS011;17387;42.690;23.328;2024-02-26T09:56:47;23.65;;;13.55;;
29984;SDS011;17387;42.690;23.328;2024-02-26T09:59:15;21.08;;;11.73;;
29984;SDS011;17387;42.690;23.328;2024-02-26T10:01:42;13.55;;;8.02;;
29984;SDS011;17387;42.690;23.328;2024-02-26T10:04:07;22.85;;;9.98;;
29984;SDS011;17387;42.690;23.328;2024-02-26T10:06:33;14.70;;;9.35;;
29984;SDS011;17387;42.690;23.328;2024-02-26T10:08:59;14.98;;;8.00;;
29984;SDS011;17387;42.690;23.328;2024-02-26T10:11:24;11.32;;;7.90;;
29984;SDS011;17387;42.690;23.328;2024-02-26T10:13:50;19.98;;;8.10;;
29984;SDS011;17387;42.690;23.328;2024-02-26T10:16:15;12.50;;;7.73;;
29984;SDS011;17387;42.690;23.328;2024-02-26T10:18:47;12.90;;;8.00;;
29984;SDS011;17387;42.690;23.328;2024-02-26T10:21:13;28.77;;;15.65;;
29984;SDS011;17387;42.690;23.328;2024-02-26T10:23:39;15.88;;;8.75;;
29984;SDS011;17387;42.690;23.328;2024-02-26T10:26:04;16.23;;;8.18;;
29984;SDS011;17387;42.690;23.328;2024-02-26T10:28:29;24.73;;;13.15;;
29984;SDS011;17387;42.690;23.328;2024-02-26T10:30:54;23.97;;;12.33;;
29984;SDS011;17387;42.690;23.328;2024-02-26T10:33:20;20.83;;;10.73;;
29984;SDS011;17387;42.690;23.328;2024-02-26T10:35:46;13.15;;;8.32;;
29984;SDS011;17387;42.690;23.328;2024-02-26T10:38:11;14.38;;;9.02;;
29984;SDS011;17387;42.690;23.328;2024-02-26T10:40:37;13.57;;;9.13;;
29984;SDS011;17387;42.690;23.328;2024-02-26T10:43:02;14.00;;;10.38;;
29984;SDS011;17387;42.690;23.328;2024-02-26T10:45:27;12.35;;;8.68;;
29984;SDS011;17387;42.690;23.328;2024-02-26T10:47:53;30.77;;;15.13;;
29984;SDS011;17387;42.690;23.328;2024-02-26T10:50:18;13.93;;;8.90;;
29984;SDS011;17387;42.690;23.328;2024-02-26T10:52:44;11.57;;;7.43;;
29984;SDS011;17387;42.690;23.328;2024-02-26T10:55:12;11.53;;;7.70;;
29984;SDS011;17387;42.690;23.328;2024-02-26T10:57:39;12.30;;;8.05;;
29984;SDS011;17387;42.690;23.328;2024-02-26T11:00:05;56.80;;;25.80;;
29984;SDS011;17387;42.690;23.328;2024-02-26T11:02:31;15.50;;;9.35;;
29984;SDS011;17387;42.690;23.328;2024-02-26T11:04:57;16.27;;;8.43;;
29984;SDS011;17387;42.690;23.328;2024-02-26T11:07:23;18.70;;;8.73;;
29984;SDS011;17387;42.690;23.328;2024-02-26T11:09:49;13.40;;;8.90;;
29984;SDS011;17387;42.690;23.328;2024-02-26T11:12:17;12.93;;;8.00;;
29984;SDS011;17387;42.690;23.328;2024-02-26T11:14:44;12.38;;;7.60;;
29984;SDS011;17387;42.690;23.328;2024-02-26T11:17:11;11.68;;;8.70;;
29984;SDS011;17387;42.690;23.328;2024-02-26T11:19:37;20.95;;;11.50;;
29984;SDS011;17387;42.690;23.328;2024-02-26T11:22:03;11.18;;;7.88;;
29984;SDS011;17387;42.690;23.328;2024-02-26T11:24:28;15.15;;;9.40;;
29984;SDS011;17387;42.690;23.328;2024-02-26T11:26:54;27.80;;;13.32;;
29984;SDS011;17387;42.690;23.328;2024-02-26T11:29:24;16.45;;;9.45;;
29984;SDS011;17387;42.690;23.328;2024-02-26T11:31:52;13.27;;;8.93;;
29984;SDS011;17387;42.690;23.328;2024-02-26T11:34:17;17.40;;;10.18;;
29984;SDS011;17387;42.690;23.328;2024-02-26T11:36:43;17.77;;;10.95;;
29984;SDS011;17387;42.690;23.328;2024-02-26T11:39:08;15.55;;;10.23;;
29984;SDS011;17387;42.690;23.328;2024-02-26T11:41:37;16.30;;;9.65;;
29984;SDS011;17387;42.690;23.328;2024-02-26T11:44:03;13.93;;;8.63;;
29984;SDS011;17387;42.690;23.328;2024-02-26T11:46:32;12.25;;;8.55;;
29984;SDS011;17387;42.690;23.328;2024-02-26T11:48:58;13.20;;;9.43;;
29984;SDS011;17387;42.690;23.328;2024-02-26T11:51:25;14.48;;;8.65;;
29984;SDS011;17387;42.690;23.328;2024-02-26T11:53:50;18.67;;;11.38;;
29984;SDS011;17387;42.690;23.328;2024-02-26T11:58:56;61.35;;;23.48;;
29984;SDS011;17387;42.690;23.328;2024-02-26T12:04:07;25.85;;;11.98;;
29984;SDS011;17387;42.690;23.328;2024-02-26T12:06:46;14.65;;;9.18;;
29984;SDS011;17387;42.690;23.328;2024-02-26T12:09:12;28.20;;;13.05;;
29984;SDS011;17387;42.690;23.328;2024-02-26T12:11:38;34.78;;;15.13;;
29984;SDS011;17387;42.690;23.328;2024-02-26T12:14:05;19.52;;;11.45;;
29984;SDS011;17387;42.690;23.328;2024-02-26T12:16:37;17.83;;;9.50;;
29984;SDS011;17387;42.690;23.328;2024-02-26T12:19:06;16.25;;;7.95;;
29984;SDS011;17387;42.690;23.328;2024-02-26T12:21:35;24.48;;;12.95;;
29984;SDS011;17387;42.690;23.328;2024-02-26T12:24:10;12.18;;;7.30;;
29984;SDS011;17387;42.690;23.328;2024-02-26T12:26:37;15.35;;;8.88;;
29984;SDS011;17387;42.690;23.328;2024-02-26T12:29:02;13.30;;;8.60;;
29984;SDS011;17387;42.690;23.328;2024-02-26T12:31:27;13.95;;;8.18;;
29984;SDS011;17387;42.690;23.328;2024-02-26T12:33:54;12.25;;;7.28;;
29984;SDS011;17387;42.690;23.328;2024-02-26T12:36:19;13.13;;;5.90;;
29984;SDS011;17387;42.690;23.328;2024-02-26T12:38:45;10.20;;;6.65;;
29984;SDS011;17387;42.690;23.328;2024-02-26T12:41:10;17.27;;;5.93;;
29984;SDS011;17387;42.690;23.328;2024-02-26T12:43:35;13.57;;;6.78;;
29984;SDS011;17387;42.690;23.328;2024-02-26T12:46:02;11.00;;;6.27;;
29984;SDS011;17387;42.690;23.328;2024-02-26T12:48:28;14.30;;;8.25;;
29984;SDS011;17387;42.690;23.328;2024-02-26T12:50:53;11.60;;;6.90;;
29984;SDS011;17387;42.690;23.328;2024-02-26T12:53:20;9.60;;;5.95;;
29984;SDS011;17387;42.690;23.328;2024-02-26T12:55:46;12.52;;;7.03;;
29984;SDS011;17387;42.690;23.328;2024-02-26T12:58:11;18.30;;;9.50;;
29984;SDS011;17387;42.690;23.328;2024-02-26T13:00:37;12.38;;;7.25;;
29984;SDS011;17387;42.690;23.328;2024-02-26T13:03:02;9.38;;;5.65;;
29984;SDS011;17387;42.690;23.328;2024-02-26T13:05:28;12.43;;;7.32;;
29984;SDS011;17387;42.690;23.328;2024-02-26T13:07:53;8.90;;;6.07;;
29984;SDS011;17387;42.690;23.328;2024-02-26T13:10:18;8.93;;;5.50;;
29984;SDS011;17387;42.690;23.328;2024-02-26T13:12:45;11.30;;;6.13;;
29984;SDS011;17387;42.690;23.328;2024-02-26T13:15:14;9.90;;;5.70;;
29984;SDS011;17387;42.690;23.328;2024-02-26T13:17:40;10.82;;;5.30;;
29984;SDS011;17387;42.690;23.328;2024-02-26T13:20:05;10.00;;;6.87;;
29984;SDS011;17387;42.690;23.328;2024-02-26T13:22:31;10.13;;;6.60;;
29984;SDS011;17387;42.690;23.328;2024-02-26T13:24:59;11.25;;;6.00;;
29984;SDS011;17387;42.690;23.328;2024-02-26T13:27:24;10.07;;;6.40;;
29984;SDS011;17387;42.690;23.328;2024-02-26T13:30:03;9.77;;;5.60;;
29984;SDS011;17387;42.690;23.328;2024-02-26T13:32:31;11.50;;;6.43;;
29984;SDS011;17387;42.690;23.328;2024-02-26T13:37:32;10.63;;;5.72;;
29984;SDS011;17387;42.690;23.328;2024-02-26T13:39:57;10.60;;;6.90;;
29984;SDS011;17387;42.690;23.328;2024-02-26T13:42:22;10.03;;;6.20;;
29984;SDS011;17387;42.690;23.328;2024-02-26T13:44:48;10.87;;;5.63;;
29984;SDS011;17387;42.690;23.328;2024-02-26T13:47:13;11.03;;;5.70;;
29984;SDS011;17387;42.690;23.328;2024-02-26T13:49:39;9.35;;;5.13;;
29984;SDS011;17387;42.690;23.328;2024-02-26T13:52:04;11.57;;;6.40;;
29984;SDS011;17387;42.690;23.328;2024-02-26T13:54:30;56.90;;;20.75;;
29984;SDS011;17387;42.690;23.328;2024-02-26T13:56:55;30.23;;;13.90;;
29984;SDS011;17387;42.690;23.328;2024-02-26T13:59:20;13.88;;;6.68;;
29984;SDS011;17387;42.690;23.328;2024-02-26T14:01:45;54.47;;;23.30;;
29984;SDS011;17387;42.690;23.328;2024-02-26T14:04:10;19.80;;;10.00;;
29984;SDS011;17387;42.690;23.328;2024-02-26T14:06:39;9.95;;;6.47;;
29984;SDS011;17387;42.690;23.328;2024-02-26T14:09:04;17.10;;;8.68;;
29984;SDS011;17387;42.690;23.328;2024-02-26T14:11:30;8.70;;;6.43;;
29984;SDS011;17387;42.690;23.328;2024-02-26T14:13:56;8.20;;;5.20;;